Ocean Titan — WDJ3639 — position and weather

sailwx.info

Track history (hours):
 
Tides and Currents Weather Stations Pressure Air Temp Water Temp Dewpoint Dewpoint Depression Visibility Wind Speed Wind Dir Waves Ship Positions

Oceanographic research ship Ocean Titan (USA)

Owner: Ocean Titan Holding, LLC, Seattle, WA. More information available from US FCC via Universal Licensing System and Coast Guard Vessel Documentation Center.

Last reported at 2019-Dec-04 04:00 UTC. Time now 2019-Dec-11 11:50 UTC.
Position N 54°23' W 131°11'.

Length 60 m; draft 4.7 m.

Type: . MMSI: 369228000.

Date/timePositionNaut miles runAvg speedWind from/ knotsBaromVisibWave heightAir tempDewpointWater temp
2019-Dec-04 04:00N 54°23' W 131°11'510.6
2019-Dec-04 03:30N 54°20' W 131°03'1010.2
2019-Dec-04 02:31N 54°16' W 130°47'510.3
2019-Dec-04 02:00N 54°13' W 130°40'1610.9
2019-Dec-04 00:30N 54°04' W 130°17'1110.8
2019-Dec-03 23:30N 53°55' W 130°08'10510.0
2019-Dec-03 13:04N 52°29' W 128°27'15 9.0
2019-Dec-03 11:27N 52°15' W 128°21'18 8.7
2019-Dec-03 09:25N 52°04' W 127°58'4 9.7
2019-Dec-03 09:00N 52°01' W 127°56'611.7
2019-Dec-03 08:29N 51°55' W 127°55'1111.3
2019-Dec-03 07:31N 51°44' W 127°56'1111.1
2019-Dec-03 06:30N 51°33' W 127°52'1110.8
2019-Dec-03 05:30N 51°22' W 127°52'1111.0
2019-Dec-03 04:30N 51°11' W 127°52'611.4
2019-Dec-03 04:00N 51°05' W 127°51'611.2
2019-Dec-03 03:30N 51°00' W 127°48'3711.3
2019-Dec-03 00:16N 50°42' W 126°57'6111.6
2019-Dec-02 18:59N 50°20' W 125°27'611.0
2019-Dec-02 18:28N 50°15' W 125°23'1010.4
2019-Dec-02 17:30N 50°06' W 125°17'510.3
2019-Dec-02 17:00N 50°02' W 125°13'1010.1
2019-Dec-02 16:00N 49°54' W 125°02'3710.8
2019-Dec-02 12:34N 49°32' W 124°16'1110.7
2019-Dec-02 11:30N 49°25' W 124°02'3110.3
2019-Dec-02 08:30N 49°06' W 123°24'10 9.9
2019-Dec-02 07:30N 48°60' W 123°13'5 9.2
2019-Dec-02 07:00N 48°57' W 123°08'10 9.6
2019-Dec-02 06:00N 48°50' W 122°57'14 9.2
2019-Dec-02 04:30N 48°40' W 122°42'5 9.3
2019-Dec-02 04:00N 48°36' W 122°45'5 9.5
2019-Dec-02 03:30N 48°31' W 122°44'20 9.6
2019-Dec-02 01:28N 48°12' W 122°47'2010.4
2019-Dec-01 23:30N 47°56' W 122°29'3610.2
2019-Dec-01 20:00N 47°20' W 122°25'3 1.8
2019-Dec-01 18:30N 47°17' W 122°25'0 0.0
2019-Dec-01 16:30N 47°17' W 122°25'0 0.1
2019-Dec-01 16:00N 47°17' W 122°25'1 0.3
2019-Dec-01 13:55N 47°17' W 122°25'0 0.0
2019-Dec-01 12:58N 47°17' W 122°25'0 0.0
2019-Dec-01 11:58N 47°17' W 122°25'0 0.0
2019-Dec-01 11:28N 47°17' W 122°25'0 0.0
2019-Dec-01 08:25N 47°17' W 122°25'0 0.0
2019-Dec-01 05:19N 47°17' W 122°25'0 0.0
2019-Dec-01 04:58N 47°17' W 122°25'0 0.0
2019-Dec-01 03:25N 47°17' W 122°25'0 0.0
2019-Nov-30 22:37N 47°17' W 122°25'0 0.0
2019-Nov-30 20:25N 47°17' W 122°25'0 0.0
2019-Nov-30 18:55N 47°17' W 122°25'0 0.0
2019-Nov-30 18:19N 47°17' W 122°25'0 0.0
2019-Nov-30 13:25N 47°17' W 122°25'0 0.0
2019-Nov-30 12:28N 47°17' W 122°25'0 0.0
2019-Nov-30 05:28N 47°17' W 122°25'0 0.0
2019-Nov-30 04:58N 47°17' W 122°25'0 0.0
2019-Nov-30 03:16N 47°17' W 122°25'0 0.0
2019-Nov-30 02:28N 47°17' W 122°25'0 0.0
2019-Nov-30 00:49N 47°17' W 122°25'0 0.0
2019-Nov-29 21:22N 47°17' W 122°25'0 0.0
2019-Nov-29 20:34N 47°17' W 122°25'0 0.0
2019-Nov-29 20:16N 47°17' W 122°25'0 0.0
2019-Nov-29 19:22N 47°17' W 122°25'0 0.0
2019-Nov-29 17:55N 47°17' W 122°25'0 0.0
2019-Nov-29 17:25N 47°17' W 122°25'0 0.0
2019-Nov-29 16:28N 47°17' W 122°25'0 0.0
2019-Nov-29 15:55N 47°17' W 122°25'0 0.0
2019-Nov-29 15:13N 47°17' W 122°25'0 0.0
2019-Nov-29 13:49N 47°17' W 122°25'0 0.0
2019-Nov-29 11:58N 47°17' W 122°25'0 0.0
2019-Nov-29 11:28N 47°17' W 122°25'0 0.0
2019-Nov-29 09:28N 47°17' W 122°25'0 0.0
2019-Nov-29 07:25N 47°17' W 122°25'0 0.0
2019-Nov-29 06:52N 47°17' W 122°25'0 0.0
2019-Nov-29 06:25N 47°17' W 122°25'0 0.0
2019-Nov-29 04:55N 47°17' W 122°25'0 0.0
2019-Nov-29 04:25N 47°17' W 122°25'0 0.0
2019-Nov-29 03:28N 47°17' W 122°25'0 0.0
2019-Nov-29 02:28N 47°17' W 122°25'0 0.0
2019-Nov-29 01:55N 47°17' W 122°25'0 0.0
2019-Nov-29 00:25N 47°17' W 122°25'0 0.0
2019-Nov-28 21:25N 47°17' W 122°25'0 0.0
2019-Nov-28 19:52N 47°17' W 122°25'0 0.0
2019-Nov-28 19:28N 47°17' W 122°25'0 0.0
2019-Nov-28 18:52N 47°17' W 122°25'0 0.0
2019-Nov-28 17:58N 47°17' W 122°25'0 0.0
2019-Nov-28 16:25N 47°17' W 122°25'0 0.0
2019-Nov-28 15:55N 47°17' W 122°25'0 0.0
2019-Nov-28 14:25N 47°17' W 122°25'0 0.0
2019-Nov-28 13:55N 47°17' W 122°25'0 0.0
2019-Nov-28 13:13N 47°17' W 122°25'0 0.0
2019-Nov-28 07:28N 47°17' W 122°25'0 0.0
2019-Nov-28 06:25N 47°17' W 122°25'0 0.0
2019-Nov-28 04:55N 47°17' W 122°25'0 0.0
2019-Nov-28 04:19N 47°17' W 122°25'0 0.0
2019-Nov-28 02:22N 47°17' W 122°25'0 0.0
2019-Nov-28 01:25N 47°17' W 122°25'0 0.0
2019-Nov-27 23:55N 47°17' W 122°25'0 0.0
2019-Nov-27 21:28N 47°17' W 122°25'0 0.0
2019-Nov-27 20:52N 47°17' W 122°25'0 0.0
2019-Nov-27 20:22N 47°17' W 122°25'0 0.0
2019-Nov-27 19:58N 47°17' W 122°25'0 0.0
2019-Nov-27 19:28N 47°17' W 122°25'0 0.0
2019-Nov-27 17:16N 47°17' W 122°25'0 0.0
2019-Nov-27 16:58N 47°17' W 122°25'0 0.0
2019-Nov-27 16:28N 47°17' W 122°25'0 0.0
2019-Nov-27 15:13N 47°17' W 122°25'0 0.0
2019-Nov-27 14:13N 47°17' W 122°25'0 0.0
2019-Nov-27 13:43N 47°17' W 122°25'0 0.0
2019-Nov-27 12:55N 47°17' W 122°25'0 0.0
2019-Nov-27 11:25N 47°17' W 122°25'0 0.0
2019-Nov-27 09:49N 47°17' W 122°25'0 0.0
2019-Nov-27 09:28N 47°17' W 122°25'0 0.0
2019-Nov-27 08:28N 47°17' W 122°25'0 0.0
2019-Nov-27 06:28N 47°17' W 122°25'0 0.0
2019-Nov-27 03:28N 47°17' W 122°25'0 0.0
2019-Nov-27 02:28N 47°17' W 122°25'0 0.0
2019-Nov-26 22:55N 47°17' W 122°25'0 0.0
2019-Nov-26 22:25N 47°17' W 122°25'0 0.0
2019-Nov-26 21:25N 47°17' W 122°25'0 0.0
2019-Nov-26 19:49N 47°17' W 122°25'0 0.0
2019-Nov-26 19:25N 47°17' W 122°25'0 0.0
2019-Nov-26 18:55N 47°17' W 122°25'0 0.0
2019-Nov-26 14:25N 47°17' W 122°25'0 0.0
2019-Nov-26 12:55N 47°17' W 122°25'0 0.0
2019-Nov-26 10:25N 47°17' W 122°25'0 0.0
2019-Nov-26 08:52N 47°17' W 122°25'0 0.0
2019-Nov-26 07:28N 47°17' W 122°25'0 0.0
2019-Nov-26 06:52N 47°17' W 122°25'0 0.0
2019-Nov-26 06:25N 47°17' W 122°25'0 0.0
2019-Nov-26 05:25N 47°17' W 122°25'0 0.0
2019-Nov-26 03:28N 47°17' W 122°25'0 0.0
2019-Nov-25 23:58N 47°17' W 122°25'0 0.0
2019-Nov-25 18:28N 47°17' W 122°25'0 0.0
2019-Nov-25 16:22N 47°17' W 122°25'0 0.0
2019-Nov-25 13:25N 47°17' W 122°25'0 0.0
2019-Nov-25 11:25N 47°17' W 122°25'0 0.0
2019-Nov-25 10:43N 47°17' W 122°25'0 0.0
2019-Nov-25 08:52N 47°17' W 122°25'0 0.0
2019-Nov-24 21:25N 47°17' W 122°25'0 0.0
2019-Nov-24 20:37N 47°17' W 122°25'0 0.0
2019-Nov-24 19:25N 47°17' W 122°25'0 0.0
2019-Nov-24 17:19N 47°17' W 122°25'0 0.0
2019-Nov-24 16:58N 47°17' W 122°25'0 0.0
2019-Nov-24 14:28N 47°17' W 122°25'0 0.0
2019-Nov-24 12:19N 47°17' W 122°25'0 0.0
2019-Nov-24 11:52N 47°17' W 122°25'0 0.0
2019-Nov-24 08:13N 47°17' W 122°25'0 0.0
2019-Nov-24 06:28N 47°17' W 122°25'0 0.0
2019-Nov-24 04:55N 47°17' W 122°25'  
Track history (hours):
 
Tides and Currents Weather Stations Pressure Air Temp Water Temp Dewpoint Dewpoint Depression Visibility Wind Speed Wind Dir Waves Ship Positions

Oceanographic research ship Ocean Titan (USA)

Owner: Ocean Titan Holding, LLC, Seattle, WA. More information available from US FCC via Universal Licensing System and Coast Guard Vessel Documentation Center.

Last reported at 2019-Dec-04 04:00 UTC. Time now 2019-Dec-11 11:50 UTC.
Position N 54°23' W 131°11'.

Length 60 m; draft 4.7 m.

Type: . MMSI: 369228000.

Date/timePositionNaut miles runAvg speedWind from/ knotsBaromVisibWave heightAir tempDewpointWater temp
2019-Dec-04 04:00N 54°23' W 131°11'510.6
2019-Dec-04 03:30N 54°20' W 131°03'1010.2
2019-Dec-04 02:31N 54°16' W 130°47'510.3
2019-Dec-04 02:00N 54°13' W 130°40'1610.9
2019-Dec-04 00:30N 54°04' W 130°17'1110.8
2019-Dec-03 23:30N 53°55' W 130°08'10510.0
2019-Dec-03 13:04N 52°29' W 128°27'15 9.0
2019-Dec-03 11:27N 52°15' W 128°21'18 8.7
2019-Dec-03 09:25N 52°04' W 127°58'4 9.7
2019-Dec-03 09:00N 52°01' W 127°56'611.7
2019-Dec-03 08:29N 51°55' W 127°55'1111.3
2019-Dec-03 07:31N 51°44' W 127°56'1111.1
2019-Dec-03 06:30N 51°33' W 127°52'1110.8
2019-Dec-03 05:30N 51°22' W 127°52'1111.0
2019-Dec-03 04:30N 51°11' W 127°52'611.4
2019-Dec-03 04:00N 51°05' W 127°51'611.2
2019-Dec-03 03:30N 51°00' W 127°48'3711.3
2019-Dec-03 00:16N 50°42' W 126°57'6111.6
2019-Dec-02 18:59N 50°20' W 125°27'611.0
2019-Dec-02 18:28N 50°15' W 125°23'1010.4
2019-Dec-02 17:30N 50°06' W 125°17'510.3
2019-Dec-02 17:00N 50°02' W 125°13'1010.1
2019-Dec-02 16:00N 49°54' W 125°02'3710.8
2019-Dec-02 12:34N 49°32' W 124°16'1110.7
2019-Dec-02 11:30N 49°25' W 124°02'3110.3
2019-Dec-02 08:30N 49°06' W 123°24'10 9.9
2019-Dec-02 07:30N 48°60' W 123°13'5 9.2
2019-Dec-02 07:00N 48°57' W 123°08'10 9.6
2019-Dec-02 06:00N 48°50' W 122°57'14 9.2
2019-Dec-02 04:30N 48°40' W 122°42'5 9.3
2019-Dec-02 04:00N 48°36' W 122°45'5 9.5
2019-Dec-02 03:30N 48°31' W 122°44'20 9.6
2019-Dec-02 01:28N 48°12' W 122°47'2010.4
2019-Dec-01 23:30N 47°56' W 122°29'3610.2
2019-Dec-01 20:00N 47°20' W 122°25'3 1.8
2019-Dec-01 18:30N 47°17' W 122°25'0 0.0
2019-Dec-01 16:30N 47°17' W 122°25'0 0.1
2019-Dec-01 16:00N 47°17' W 122°25'1 0.3
2019-Dec-01 13:55N 47°17' W 122°25'0 0.0
2019-Dec-01 12:58N 47°17' W 122°25'0 0.0
2019-Dec-01 11:58N 47°17' W 122°25'0 0.0
2019-Dec-01 11:28N 47°17' W 122°25'0 0.0
2019-Dec-01 08:25N 47°17' W 122°25'0 0.0
2019-Dec-01 05:19N 47°17' W 122°25'0 0.0
2019-Dec-01 04:58N 47°17' W 122°25'0 0.0
2019-Dec-01 03:25N 47°17' W 122°25'0 0.0
2019-Nov-30 22:37N 47°17' W 122°25'0 0.0
2019-Nov-30 20:25N 47°17' W 122°25'0 0.0
2019-Nov-30 18:55N 47°17' W 122°25'0 0.0
2019-Nov-30 18:19N 47°17' W 122°25'0 0.0
2019-Nov-30 13:25N 47°17' W 122°25'0 0.0
2019-Nov-30 12:28N 47°17' W 122°25'0 0.0
2019-Nov-30 05:28N 47°17' W 122°25'0 0.0
2019-Nov-30 04:58N 47°17' W 122°25'0 0.0
2019-Nov-30 03:16N 47°17' W 122°25'0 0.0
2019-Nov-30 02:28N 47°17' W 122°25'0 0.0
2019-Nov-30 00:49N 47°17' W 122°25'0 0.0
2019-Nov-29 21:22N 47°17' W 122°25'0 0.0
2019-Nov-29 20:34N 47°17' W 122°25'0 0.0
2019-Nov-29 20:16N 47°17' W 122°25'0 0.0
2019-Nov-29 19:22N 47°17' W 122°25'0 0.0
2019-Nov-29 17:55N 47°17' W 122°25'0 0.0
2019-Nov-29 17:25N 47°17' W 122°25'0 0.0
2019-Nov-29 16:28N 47°17' W 122°25'0 0.0
2019-Nov-29 15:55N 47°17' W 122°25'0 0.0
2019-Nov-29 15:13N 47°17' W 122°25'0 0.0
2019-Nov-29 13:49N 47°17' W 122°25'0 0.0
2019-Nov-29 11:58N 47°17' W 122°25'0 0.0
2019-Nov-29 11:28N 47°17' W 122°25'0 0.0
2019-Nov-29 09:28N 47°17' W 122°25'0 0.0
2019-Nov-29 07:25N 47°17' W 122°25'0 0.0
2019-Nov-29 06:52N 47°17' W 122°25'0 0.0
2019-Nov-29 06:25N 47°17' W 122°25'0 0.0
2019-Nov-29 04:55N 47°17' W 122°25'0 0.0
2019-Nov-29 04:25N 47°17' W 122°25'0 0.0
2019-Nov-29 03:28N 47°17' W 122°25'0 0.0
2019-Nov-29 02:28N 47°17' W 122°25'0 0.0
2019-Nov-29 01:55N 47°17' W 122°25'0 0.0
2019-Nov-29 00:25N 47°17' W 122°25'0 0.0
2019-Nov-28 21:25N 47°17' W 122°25'0 0.0
2019-Nov-28 19:52N 47°17' W 122°25'0 0.0
2019-Nov-28 19:28N 47°17' W 122°25'0 0.0
2019-Nov-28 18:52N 47°17' W 122°25'0 0.0
2019-Nov-28 17:58N 47°17' W 122°25'0 0.0
2019-Nov-28 16:25N 47°17' W 122°25'0 0.0
2019-Nov-28 15:55N 47°17' W 122°25'0 0.0
2019-Nov-28 14:25N 47°17' W 122°25'0 0.0
2019-Nov-28 13:55N 47°17' W 122°25'0 0.0
2019-Nov-28 13:13N 47°17' W 122°25'0 0.0
2019-Nov-28 07:28N 47°17' W 122°25'0 0.0
2019-Nov-28 06:25N 47°17' W 122°25'0 0.0
2019-Nov-28 04:55N 47°17' W 122°25'0 0.0
2019-Nov-28 04:19N 47°17' W 122°25'0 0.0
2019-Nov-28 02:22N 47°17' W 122°25'0 0.0
2019-Nov-28 01:25N 47°17' W 122°25'0 0.0
2019-Nov-27 23:55N 47°17' W 122°25'0 0.0
2019-Nov-27 21:28N 47°17' W 122°25'0 0.0
2019-Nov-27 20:52N 47°17' W 122°25'0 0.0
2019-Nov-27 20:22N 47°17' W 122°25'0 0.0
2019-Nov-27 19:58N 47°17' W 122°25'0 0.0
2019-Nov-27 19:28N 47°17' W 122°25'0 0.0
2019-Nov-27 17:16N 47°17' W 122°25'0 0.0
2019-Nov-27 16:58N 47°17' W 122°25'0 0.0
2019-Nov-27 16:28N 47°17' W 122°25'0 0.0
2019-Nov-27 15:13N 47°17' W 122°25'0 0.0
2019-Nov-27 14:13N 47°17' W 122°25'0 0.0
2019-Nov-27 13:43N 47°17' W 122°25'0 0.0
2019-Nov-27 12:55N 47°17' W 122°25'0 0.0
2019-Nov-27 11:25N 47°17' W 122°25'0 0.0
2019-Nov-27 09:49N 47°17' W 122°25'0 0.0
2019-Nov-27 09:28N 47°17' W 122°25'0 0.0
2019-Nov-27 08:28N 47°17' W 122°25'0 0.0
2019-Nov-27 06:28N 47°17' W 122°25'0 0.0
2019-Nov-27 03:28N 47°17' W 122°25'0 0.0
2019-Nov-27 02:28N 47°17' W 122°25'0 0.0
2019-Nov-26 22:55N 47°17' W 122°25'0 0.0
2019-Nov-26 22:25N 47°17' W 122°25'0 0.0
2019-Nov-26 21:25N 47°17' W 122°25'0 0.0
2019-Nov-26 19:49N 47°17' W 122°25'0 0.0
2019-Nov-26 19:25N 47°17' W 122°25'0 0.0
2019-Nov-26 18:55N 47°17' W 122°25'0 0.0
2019-Nov-26 14:25N 47°17' W 122°25'0 0.0
2019-Nov-26 12:55N 47°17' W 122°25'0 0.0
2019-Nov-26 10:25N 47°17' W 122°25'0 0.0
2019-Nov-26 08:52N 47°17' W 122°25'0 0.0
2019-Nov-26 07:28N 47°17' W 122°25'0 0.0
2019-Nov-26 06:52N 47°17' W 122°25'0 0.0
2019-Nov-26 06:25N 47°17' W 122°25'0 0.0
2019-Nov-26 05:25N 47°17' W 122°25'0 0.0
2019-Nov-26 03:28N 47°17' W 122°25'0 0.0
2019-Nov-25 23:58N 47°17' W 122°25'0 0.0
2019-Nov-25 18:28N 47°17' W 122°25'0 0.0
2019-Nov-25 16:22N 47°17' W 122°25'0 0.0
2019-Nov-25 13:25N 47°17' W 122°25'0 0.0
2019-Nov-25 11:25N 47°17' W 122°25'0 0.0
2019-Nov-25 10:43N 47°17' W 122°25'0 0.0
2019-Nov-25 08:52N 47°17' W 122°25'0 0.0
2019-Nov-24 21:25N 47°17' W 122°25'0 0.0
2019-Nov-24 20:37N 47°17' W 122°25'0 0.0
2019-Nov-24 19:25N 47°17' W 122°25'0 0.0
2019-Nov-24 17:19N 47°17' W 122°25'0 0.0
2019-Nov-24 16:58N 47°17' W 122°25'0 0.0
2019-Nov-24 14:28N 47°17' W 122°25'0 0.0
2019-Nov-24 12:19N 47°17' W 122°25'0 0.0
2019-Nov-24 11:52N 47°17' W 122°25'0 0.0
2019-Nov-24 08:13N 47°17' W 122°25'0 0.0
2019-Nov-24 06:28N 47°17' W 122°25'0 0.0
2019-Nov-24 04:55N 47°17' W 122°25'  

Dump ship's entire track history